Terminal Aerodrome Forecast
Issued by NWS

Home | Current Version | Previous Version | Text Only | Print | Product List | Glossary On
Versions: 1 2 3 4 5 6 7 8 9 10 11 12 13 14 15 16 17 18 19 20 21 22 23 24 25 26
000
FTUS45 KGJT 291145
TAFASE
TAF
KASE 291145Z 2912/3012 20004KT P6SM SCT100 BKN200
     FM291500 VRB03KT P6SM VCSH BKN090 BKN200
     FM291800 01007KT P6SM VCTS SCT080CB BKN120
      TEMPO 2921/3001 VRB15G25KT 3SM +TSRA SCT025 OVC040CB
     FM300100 15005KT P6SM -SHRA OVC050
     FM300600 21004KT P6SM VCSH SCT060 BKN090=

USA.gov is the U.S. government's official web portal to all federal, state and local government web resources and services.